sensor_id;sensor_type;location;lat;lon;timestamp;temperature;humidity
25554;DHT22;13446;50.926;5.332;2023-05-07T00:02:01;17.30;99.90
25554;DHT22;13446;50.926;5.332;2023-05-07T00:04:28;17.30;99.90
25554;DHT22;13446;50.926;5.332;2023-05-07T00:06:53;17.40;99.90
25554;DHT22;13446;50.926;5.332;2023-05-07T00:09:19;17.30;99.90
25554;DHT22;13446;50.926;5.332;2023-05-07T00:11:44;17.30;99.90
25554;DHT22;13446;50.926;5.332;2023-05-07T00:14:10;17.40;99.90
25554;DHT22;13446;50.926;5.332;2023-05-07T00:16:35;17.40;99.90
25554;DHT22;13446;50.926;5.332;2023-05-07T00:19:01;17.40;99.90
25554;DHT22;13446;50.926;5.332;2023-05-07T00:21:26;17.60;99.90
25554;DHT22;13446;50.926;5.332;2023-05-07T00:23:53;17.50;99.90
25554;DHT22;13446;50.926;5.332;2023-05-07T00:26:18;17.50;99.90
25554;DHT22;13446;50.926;5.332;2023-05-07T00:28:44;17.50;99.90
25554;DHT22;13446;50.926;5.332;2023-05-07T00:31:09;17.50;99.90
25554;DHT22;13446;50.926;5.332;2023-05-07T00:33:35;17.60;99.90
25554;DHT22;13446;50.926;5.332;2023-05-07T00:36:00;17.50;99.90
25554;DHT22;13446;50.926;5.332;2023-05-07T00:38:27;17.40;99.90
25554;DHT22;13446;50.926;5.332;2023-05-07T00:40:52;17.30;99.90
25554;DHT22;13446;50.926;5.332;2023-05-07T00:43:18;17.40;99.90
25554;DHT22;13446;50.926;5.332;2023-05-07T00:45:44;17.30;99.90
25554;DHT22;13446;50.926;5.332;2023-05-07T00:48:09;17.40;99.90
25554;DHT22;13446;50.926;5.332;2023-05-07T00:50:35;17.50;99.90
25554;DHT22;13446;50.926;5.332;2023-05-07T00:53:01;17.40;99.90
25554;DHT22;13446;50.926;5.332;2023-05-07T00:55:26;17.30;99.90
25554;DHT22;13446;50.926;5.332;2023-05-07T00:57:52;17.30;99.90
25554;DHT22;13446;50.926;5.332;2023-05-07T01:00:17;17.20;99.90
25554;DHT22;13446;50.926;5.332;2023-05-07T01:02:43;17.30;99.90
25554;DHT22;13446;50.926;5.332;2023-05-07T01:05:10;17.40;99.90
25554;DHT22;13446;50.926;5.332;2023-05-07T01:07:38;17.30;99.90
25554;DHT22;13446;50.926;5.332;2023-05-07T01:10:05;17.30;99.90
25554;DHT22;13446;50.926;5.332;2023-05-07T01:12:31;17.20;99.90
25554;DHT22;13446;50.926;5.332;2023-05-07T01:14:57;17.10;99.90
25554;DHT22;13446;50.926;5.332;2023-05-07T01:17:23;17.20;99.90
25554;DHT22;13446;50.926;5.332;2023-05-07T01:19:49;17.20;99.90
25554;DHT22;13446;50.926;5.332;2023-05-07T01:22:16;17.10;99.90
25554;DHT22;13446;50.926;5.332;2023-05-07T01:24:42;17.00;99.90
25554;DHT22;13446;50.926;5.332;2023-05-07T01:27:08;17.00;99.90
25554;DHT22;13446;50.926;5.332;2023-05-07T01:29:33;17.10;99.90
25554;DHT22;13446;50.926;5.332;2023-05-07T01:32:00;17.20;99.90
25554;DHT22;13446;50.926;5.332;2023-05-07T01:34:27;17.10;99.90
25554;DHT22;13446;50.926;5.332;2023-05-07T01:36:54;17.10;99.90
25554;DHT22;13446;50.926;5.332;2023-05-07T01:39:22;16.90;99.90
25554;DHT22;13446;50.926;5.332;2023-05-07T01:41:48;16.90;99.90
25554;DHT22;13446;50.926;5.332;2023-05-07T01:44:14;16.90;99.90
25554;DHT22;13446;50.926;5.332;2023-05-07T01:46:40;16.90;99.90
25554;DHT22;13446;50.926;5.332;2023-05-07T01:49:06;17.00;99.90
25554;DHT22;13446;50.926;5.332;2023-05-07T01:51:31;16.90;99.90
25554;DHT22;13446;50.926;5.332;2023-05-07T01:53:57;16.90;99.90
25554;DHT22;13446;50.926;5.332;2023-05-07T01:56:23;16.90;99.90
25554;DHT22;13446;50.926;5.332;2023-05-07T01:58:49;16.90;99.90
25554;DHT22;13446;50.926;5.332;2023-05-07T02:01:16;17.00;99.90
25554;DHT22;13446;50.926;5.332;2023-05-07T02:03:41;17.00;99.90
25554;DHT22;13446;50.926;5.332;2023-05-07T02:06:07;17.00;99.90
25554;DHT22;13446;50.926;5.332;2023-05-07T02:08:32;16.90;99.90
25554;DHT22;13446;50.926;5.332;2023-05-07T02:10:58;17.00;99.90
25554;DHT22;13446;50.926;5.332;2023-05-07T02:13:25;17.00;99.90
25554;DHT22;13446;50.926;5.332;2023-05-07T02:15:50;17.00;99.90
25554;DHT22;13446;50.926;5.332;2023-05-07T02:18:16;17.00;99.90
25554;DHT22;13446;50.926;5.332;2023-05-07T02:20:42;17.00;99.90
25554;DHT22;13446;50.926;5.332;2023-05-07T02:23:07;17.10;99.90
25554;DHT22;13446;50.926;5.332;2023-05-07T02:25:33;17.00;99.90
25554;DHT22;13446;50.926;5.332;2023-05-07T02:27:58;17.10;99.90
25554;DHT22;13446;50.926;5.332;2023-05-07T02:30:24;17.00;99.90
25554;DHT22;13446;50.926;5.332;2023-05-07T02:32:50;17.00;99.90
25554;DHT22;13446;50.926;5.332;2023-05-07T02:35:16;17.10;99.90
25554;DHT22;13446;50.926;5.332;2023-05-07T02:37:41;17.10;99.90
25554;DHT22;13446;50.926;5.332;2023-05-07T02:40:07;17.00;99.90
25554;DHT22;13446;50.926;5.332;2023-05-07T02:42:33;16.90;99.90
25554;DHT22;13446;50.926;5.332;2023-05-07T02:44:58;16.90;99.90
25554;DHT22;13446;50.926;5.332;2023-05-07T02:47:24;16.80;99.90
25554;DHT22;13446;50.926;5.332;2023-05-07T02:49:52;16.70;99.90
25554;DHT22;13446;50.926;5.332;2023-05-07T02:52:18;16.70;99.90
25554;DHT22;13446;50.926;5.332;2023-05-07T02:54:43;17.00;99.90
25554;DHT22;13446;50.926;5.332;2023-05-07T02:57:09;17.00;99.90
25554;DHT22;13446;50.926;5.332;2023-05-07T02:59:34;17.00;99.90
25554;DHT22;13446;50.926;5.332;2023-05-07T03:02:00;16.80;99.90
25554;DHT22;13446;50.926;5.332;2023-05-07T03:04:26;16.80;99.90
25554;DHT22;13446;50.926;5.332;2023-05-07T03:06:52;16.70;99.90
25554;DHT22;13446;50.926;5.332;2023-05-07T03:09:17;16.70;99.90
25554;DHT22;13446;50.926;5.332;2023-05-07T03:11:43;16.70;99.90
25554;DHT22;13446;50.926;5.332;2023-05-07T03:14:08;16.70;99.90
25554;DHT22;13446;50.926;5.332;2023-05-07T03:16:33;16.70;99.90
25554;DHT22;13446;50.926;5.332;2023-05-07T03:18:59;16.60;99.90
25554;DHT22;13446;50.926;5.332;2023-05-07T03:21:25;16.60;99.90
25554;DHT22;13446;50.926;5.332;2023-05-07T03:23:51;16.50;99.90
25554;DHT22;13446;50.926;5.332;2023-05-07T03:26:17;16.50;99.90
25554;DHT22;13446;50.926;5.332;2023-05-07T03:28:42;16.50;99.90
25554;DHT22;13446;50.926;5.332;2023-05-07T03:31:08;16.50;99.90
25554;DHT22;13446;50.926;5.332;2023-05-07T03:33:33;16.50;99.90
25554;DHT22;13446;50.926;5.332;2023-05-07T03:35:59;16.50;99.90
25554;DHT22;13446;50.926;5.332;2023-05-07T03:38:25;16.40;99.90
25554;DHT22;13446;50.926;5.332;2023-05-07T03:40:51;16.40;99.90
25554;DHT22;13446;50.926;5.332;2023-05-07T03:43:16;16.40;99.90
25554;DHT22;13446;50.926;5.332;2023-05-07T03:45:42;16.60;99.90
25554;DHT22;13446;50.926;5.332;2023-05-07T03:48:07;16.60;99.90
25554;DHT22;13446;50.926;5.332;2023-05-07T03:50:33;16.50;99.90
25554;DHT22;13446;50.926;5.332;2023-05-07T03:52:59;16.60;99.90
25554;DHT22;13446;50.926;5.332;2023-05-07T03:55:24;16.60;99.90
25554;DHT22;13446;50.926;5.332;2023-05-07T03:57:50;16.80;99.90
25554;DHT22;13446;50.926;5.332;2023-05-07T04:00:16;16.90;99.90
25554;DHT22;13446;50.926;5.332;2023-05-07T04:02:41;16.90;99.90
25554;DHT22;13446;50.926;5.332;2023-05-07T04:05:07;17.10;99.90
25554;DHT22;13446;50.926;5.332;2023-05-07T04:07:33;17.40;99.90
25554;DHT22;13446;50.926;5.332;2023-05-07T04:09:58;17.30;99.90
25554;DHT22;13446;50.926;5.332;2023-05-07T04:12:24;17.30;99.90
25554;DHT22;13446;50.926;5.332;2023-05-07T04:14:49;17.10;99.90
25554;DHT22;13446;50.926;5.332;2023-05-07T04:17:15;16.90;99.90
25554;DHT22;13446;50.926;5.332;2023-05-07T04:19:41;16.80;99.90
25554;DHT22;13446;50.926;5.332;2023-05-07T04:22:10;16.60;99.90
25554;DHT22;13446;50.926;5.332;2023-05-07T04:24:36;16.40;99.90
25554;DHT22;13446;50.926;5.332;2023-05-07T04:27:01;16.40;99.90
25554;DHT22;13446;50.926;5.332;2023-05-07T04:29:27;16.40;99.90
25554;DHT22;13446;50.926;5.332;2023-05-07T04:31:53;16.30;99.90
25554;DHT22;13446;50.926;5.332;2023-05-07T04:34:21;16.20;99.90
25554;DHT22;13446;50.926;5.332;2023-05-07T04:36:46;16.50;99.90
25554;DHT22;13446;50.926;5.332;2023-05-07T04:39:13;16.60;99.90
25554;DHT22;13446;50.926;5.332;2023-05-07T04:41:39;16.60;99.90
25554;DHT22;13446;50.926;5.332;2023-05-07T04:44:04;16.70;99.90
25554;DHT22;13446;50.926;5.332;2023-05-07T04:46:31;16.60;99.90
25554;DHT22;13446;50.926;5.332;2023-05-07T04:48:56;16.70;99.90
25554;DHT22;13446;50.926;5.332;2023-05-07T04:51:22;16.70;99.90
25554;DHT22;13446;50.926;5.332;2023-05-07T04:53:48;16.70;99.90
25554;DHT22;13446;50.926;5.332;2023-05-07T04:56:14;16.80;99.90
25554;DHT22;13446;50.926;5.332;2023-05-07T04:58:39;16.80;99.90
25554;DHT22;13446;50.926;5.332;2023-05-07T05:01:05;16.80;99.90
25554;DHT22;13446;50.926;5.332;2023-05-07T05:03:31;17.00;99.90
25554;DHT22;13446;50.926;5.332;2023-05-07T05:05:57;17.10;99.90
25554;DHT22;13446;50.926;5.332;2023-05-07T05:08:24;17.40;99.90
25554;DHT22;13446;50.926;5.332;2023-05-07T05:10:50;17.30;99.90
25554;DHT22;13446;50.926;5.332;2023-05-07T05:13:16;17.60;99.90
25554;DHT22;13446;50.926;5.332;2023-05-07T05:15:41;17.50;99.90
25554;DHT22;13446;50.926;5.332;2023-05-07T05:18:07;17.50;99.90
25554;DHT22;13446;50.926;5.332;2023-05-07T05:20:32;17.60;99.90
25554;DHT22;13446;50.926;5.332;2023-05-07T05:22:58;17.60;99.90
25554;DHT22;13446;50.926;5.332;2023-05-07T05:25:23;17.60;99.90
25554;DHT22;13446;50.926;5.332;2023-05-07T05:27:50;17.60;99.90
25554;DHT22;13446;50.926;5.332;2023-05-07T05:30:16;17.60;99.90
25554;DHT22;13446;50.926;5.332;2023-05-07T05:32:41;17.90;99.90
25554;DHT22;13446;50.926;5.332;2023-05-07T05:35:07;17.90;99.90
25554;DHT22;13446;50.926;5.332;2023-05-07T05:37:33;17.80;99.90
25554;DHT22;13446;50.926;5.332;2023-05-07T05:39:58;17.80;99.90
25554;DHT22;13446;50.926;5.332;2023-05-07T05:42:24;17.80;99.90
25554;DHT22;13446;50.926;5.332;2023-05-07T05:44:49;17.90;99.90
25554;DHT22;13446;50.926;5.332;2023-05-07T05:47:15;18.10;99.90
25554;DHT22;13446;50.926;5.332;2023-05-07T05:49:40;18.10;99.90
25554;DHT22;13446;50.926;5.332;2023-05-07T05:52:08;18.50;99.90
25554;DHT22;13446;50.926;5.332;2023-05-07T05:54:34;18.80;99.90
25554;DHT22;13446;50.926;5.332;2023-05-07T05:56:59;19.20;99.90
25554;DHT22;13446;50.926;5.332;2023-05-07T05:59:25;19.60;99.90
25554;DHT22;13446;50.926;5.332;2023-05-07T06:01:51;19.70;99.90
25554;DHT22;13446;50.926;5.332;2023-05-07T06:04:16;19.80;99.90
25554;DHT22;13446;50.926;5.332;2023-05-07T06:06:42;19.80;99.90
25554;DHT22;13446;50.926;5.332;2023-05-07T06:09:07;19.80;99.90
25554;DHT22;13446;50.926;5.332;2023-05-07T06:11:33;19.90;99.90
25554;DHT22;13446;50.926;5.332;2023-05-07T06:13:58;19.80;99.90
25554;DHT22;13446;50.926;5.332;2023-05-07T06:16:24;19.80;99.90
25554;DHT22;13446;50.926;5.332;2023-05-07T06:18:50;19.90;99.90
25554;DHT22;13446;50.926;5.332;2023-05-07T06:21:16;19.90;99.90
25554;DHT22;13446;50.926;5.332;2023-05-07T06:23:41;19.90;99.90
25554;DHT22;13446;50.926;5.332;2023-05-07T06:26:07;20.10;99.90
25554;DHT22;13446;50.926;5.332;2023-05-07T06:28:33;20.20;99.90
25554;DHT22;13446;50.926;5.332;2023-05-07T06:31:10;20.50;99.90
25554;DHT22;13446;50.926;5.332;2023-05-07T06:33:36;21.00;99.90
25554;DHT22;13446;50.926;5.332;2023-05-07T06:36:01;21.30;99.90
25554;DHT22;13446;50.926;5.332;2023-05-07T06:38:27;21.70;99.90
25554;DHT22;13446;50.926;5.332;2023-05-07T06:40:52;21.90;99.90
25554;DHT22;13446;50.926;5.332;2023-05-07T06:43:20;22.10;99.90
25554;DHT22;13446;50.926;5.332;2023-05-07T06:45:46;21.90;99.90
25554;DHT22;13446;50.926;5.332;2023-05-07T06:48:11;21.90;99.90
25554;DHT22;13446;50.926;5.332;2023-05-07T06:50:37;22.20;99.90
25554;DHT22;13446;50.926;5.332;2023-05-07T06:53:02;21.90;99.90
25554;DHT22;13446;50.926;5.332;2023-05-07T06:55:28;21.40;99.90
25554;DHT22;13446;50.926;5.332;2023-05-07T06:57:54;21.20;99.90
25554;DHT22;13446;50.926;5.332;2023-05-07T07:00:19;21.30;99.90
25554;DHT22;13446;50.926;5.332;2023-05-07T07:02:45;21.00;99.90
25554;DHT22;13446;50.926;5.332;2023-05-07T07:05:10;21.00;99.90
25554;DHT22;13446;50.926;5.332;2023-05-07T07:07:36;20.90;99.90
25554;DHT22;13446;50.926;5.332;2023-05-07T07:10:01;20.90;99.90
25554;DHT22;13446;50.926;5.332;2023-05-07T07:12:29;21.00;99.90
25554;DHT22;13446;50.926;5.332;2023-05-07T07:14:56;20.90;99.90
25554;DHT22;13446;50.926;5.332;2023-05-07T07:17:21;20.80;99.90
25554;DHT22;13446;50.926;5.332;2023-05-07T07:19:47;21.00;99.90
25554;DHT22;13446;50.926;5.332;2023-05-07T07:22:12;21.30;99.90
25554;DHT22;13446;50.926;5.332;2023-05-07T07:24:38;21.30;99.90
25554;DHT22;13446;50.926;5.332;2023-05-07T07:27:04;21.50;99.90
25554;DHT22;13446;50.926;5.332;2023-05-07T07:29:30;21.60;99.90
25554;DHT22;13446;50.926;5.332;2023-05-07T07:31:55;21.80;99.90
25554;DHT22;13446;50.926;5.332;2023-05-07T07:34:21;22.00;99.90
25554;DHT22;13446;50.926;5.332;2023-05-07T07:36:46;22.10;99.90
25554;DHT22;13446;50.926;5.332;2023-05-07T07:39:12;22.00;99.90
25554;DHT22;13446;50.926;5.332;2023-05-07T07:41:38;22.10;99.90
25554;DHT22;13446;50.926;5.332;2023-05-07T07:44:03;22.00;99.90
25554;DHT22;13446;50.926;5.332;2023-05-07T07:46:32;22.10;99.90
25554;DHT22;13446;50.926;5.332;2023-05-07T07:48:57;22.20;99.90
25554;DHT22;13446;50.926;5.332;2023-05-07T07:51:25;22.40;99.90
25554;DHT22;13446;50.926;5.332;2023-05-07T07:53:51;22.60;99.90
25554;DHT22;13446;50.926;5.332;2023-05-07T07:56:17;22.90;99.90
25554;DHT22;13446;50.926;5.332;2023-05-07T07:58:42;23.20;99.90
25554;DHT22;13446;50.926;5.332;2023-05-07T08:01:08;23.30;99.90
25554;DHT22;13446;50.926;5.332;2023-05-07T08:03:33;23.50;99.90
25554;DHT22;13446;50.926;5.332;2023-05-07T08:05:59;23.70;99.90
25554;DHT22;13446;50.926;5.332;2023-05-07T08:08:25;24.00;99.90
25554;DHT22;13446;50.926;5.332;2023-05-07T08:10:50;24.00;99.90
25554;DHT22;13446;50.926;5.332;2023-05-07T08:13:17;24.20;99.90
25554;DHT22;13446;50.926;5.332;2023-05-07T08:15:42;24.50;99.90
25554;DHT22;13446;50.926;5.332;2023-05-07T08:18:08;24.60;99.90
25554;DHT22;13446;50.926;5.332;2023-05-07T08:20:33;24.80;99.90
25554;DHT22;13446;50.926;5.332;2023-05-07T08:23:04;25.00;99.90
25554;DHT22;13446;50.926;5.332;2023-05-07T08:25:32;25.20;99.90
25554;DHT22;13446;50.926;5.332;2023-05-07T08:27:58;25.60;99.90
25554;DHT22;13446;50.926;5.332;2023-05-07T08:30:23;25.80;99.90
25554;DHT22;13446;50.926;5.332;2023-05-07T08:32:49;25.90;99.90
25554;DHT22;13446;50.926;5.332;2023-05-07T08:35:14;25.30;99.90
25554;DHT22;13446;50.926;5.332;2023-05-07T08:37:40;25.10;99.90
25554;DHT22;13446;50.926;5.332;2023-05-07T08:40:05;25.10;99.90
25554;DHT22;13446;50.926;5.332;2023-05-07T08:42:34;25.20;99.90
25554;DHT22;13446;50.926;5.332;2023-05-07T08:45:01;25.20;99.90
25554;DHT22;13446;50.926;5.332;2023-05-07T08:47:34;24.90;99.90
25554;DHT22;13446;50.926;5.332;2023-05-07T08:50:01;24.90;99.90
25554;DHT22;13446;50.926;5.332;2023-05-07T08:52:27;25.10;99.90
25554;DHT22;13446;50.926;5.332;2023-05-07T08:54:53;25.40;99.90
25554;DHT22;13446;50.926;5.332;2023-05-07T08:57:18;26.00;99.90
25554;DHT22;13446;50.926;5.332;2023-05-07T08:59:45;26.60;99.90
25554;DHT22;13446;50.926;5.332;2023-05-07T09:02:11;27.60;99.90
25554;DHT22;13446;50.926;5.332;2023-05-07T09:04:36;28.40;99.20
25554;DHT22;13446;50.926;5.332;2023-05-07T09:07:02;29.50;96.10
25554;DHT22;13446;50.926;5.332;2023-05-07T09:09:32;30.30;92.40
25554;DHT22;13446;50.926;5.332;2023-05-07T09:11:57;31.00;90.10
25554;DHT22;13446;50.926;5.332;2023-05-07T09:14:24;31.50;85.30
25554;DHT22;13446;50.926;5.332;2023-05-07T09:16:52;30.80;82.00
25554;DHT22;13446;50.926;5.332;2023-05-07T09:19:21;31.00;80.70
25554;DHT22;13446;50.926;5.332;2023-05-07T09:21:48;31.00;79.40
25554;DHT22;13446;50.926;5.332;2023-05-07T09:24:15;31.30;79.90
25554;DHT22;13446;50.926;5.332;2023-05-07T09:26:42;32.20;79.10
25554;DHT22;13446;50.926;5.332;2023-05-07T09:29:08;33.00;73.10
25554;DHT22;13446;50.926;5.332;2023-05-07T09:31:38;33.50;68.10
25554;DHT22;13446;50.926;5.332;2023-05-07T09:34:06;33.00;69.30
25554;DHT22;13446;50.926;5.332;2023-05-07T09:36:33;32.40;66.70
25554;DHT22;13446;50.926;5.332;2023-05-07T09:38:59;32.00;68.40
25554;DHT22;13446;50.926;5.332;2023-05-07T09:41:25;32.10;70.70
25554;DHT22;13446;50.926;5.332;2023-05-07T09:43:54;31.30;74.00
25554;DHT22;13446;50.926;5.332;2023-05-07T09:46:20;32.00;74.00
25554;DHT22;13446;50.926;5.332;2023-05-07T09:48:50;32.20;68.20
25554;DHT22;13446;50.926;5.332;2023-05-07T09:51:31;31.40;68.80
25554;DHT22;13446;50.926;5.332;2023-05-07T09:53:57;31.20;68.60
25554;DHT22;13446;50.926;5.332;2023-05-07T09:56:25;31.50;70.60
25554;DHT22;13446;50.926;5.332;2023-05-07T09:58:52;31.50;69.70
25554;DHT22;13446;50.926;5.332;2023-05-07T10:01:18;30.60;70.00
25554;DHT22;13446;50.926;5.332;2023-05-07T10:03:47;30.00;72.60
25554;DHT22;13446;50.926;5.332;2023-05-07T10:06:15;29.60;74.80
25554;DHT22;13446;50.926;5.332;2023-05-07T10:08:42;29.40;76.20
25554;DHT22;13446;50.926;5.332;2023-05-07T10:11:07;28.90;77.00
25554;DHT22;13446;50.926;5.332;2023-05-07T10:13:35;28.60;78.70
25554;DHT22;13446;50.926;5.332;2023-05-07T10:16:03;28.10;80.40
25554;DHT22;13446;50.926;5.332;2023-05-07T10:18:30;27.50;85.70
25554;DHT22;13446;50.926;5.332;2023-05-07T10:21:07;27.20;86.10
25554;DHT22;13446;50.926;5.332;2023-05-07T10:23:33;26.50;90.30
25554;DHT22;13446;50.926;5.332;2023-05-07T10:26:00;26.10;92.10
25554;DHT22;13446;50.926;5.332;2023-05-07T10:28:27;25.90;93.40
25554;DHT22;13446;50.926;5.332;2023-05-07T10:33:38;25.90;95.40
25554;DHT22;13446;50.926;5.332;2023-05-07T10:36:04;25.90;96.10
25554;DHT22;13446;50.926;5.332;2023-05-07T10:38:31;25.60;96.40
25554;DHT22;13446;50.926;5.332;2023-05-07T10:40:57;25.50;97.60
25554;DHT22;13446;50.926;5.332;2023-05-07T10:43:23;24.80;99.40
25554;DHT22;13446;50.926;5.332;2023-05-07T10:48:33;24.50;99.90
25554;DHT22;13446;50.926;5.332;2023-05-07T10:53:43;24.60;99.90
25554;DHT22;13446;50.926;5.332;2023-05-07T10:58:43;24.40;99.90
25554;DHT22;13446;50.926;5.332;2023-05-07T11:01:09;24.40;99.90
25554;DHT22;13446;50.926;5.332;2023-05-07T11:03:36;24.00;99.90
25554;DHT22;13446;50.926;5.332;2023-05-07T11:06:21;24.10;99.90
25554;DHT22;13446;50.926;5.332;2023-05-07T11:11:18;24.00;99.90
25554;DHT22;13446;50.926;5.332;2023-05-07T11:13:47;24.00;99.90
25554;DHT22;13446;50.926;5.332;2023-05-07T11:16:17;24.10;99.90
25554;DHT22;13446;50.926;5.332;2023-05-07T11:18:46;24.20;99.90
25554;DHT22;13446;50.926;5.332;2023-05-07T11:21:12;24.00;99.90
25554;DHT22;13446;50.926;5.332;2023-05-07T11:26:09;23.90;99.90
25554;DHT22;13446;50.926;5.332;2023-05-07T11:28:39;23.80;99.90
25554;DHT22;13446;50.926;5.332;2023-05-07T11:31:04;23.70;99.90
25554;DHT22;13446;50.926;5.332;2023-05-07T11:33:30;23.80;99.90
25554;DHT22;13446;50.926;5.332;2023-05-07T11:35:56;23.80;99.90
25554;DHT22;13446;50.926;5.332;2023-05-07T11:38:22;23.80;99.90
25554;DHT22;13446;50.926;5.332;2023-05-07T11:40:48;23.40;99.90
25554;DHT22;13446;50.926;5.332;2023-05-07T11:43:14;23.50;99.90
25554;DHT22;13446;50.926;5.332;2023-05-07T11:45:40;23.70;99.90
25554;DHT22;13446;50.926;5.332;2023-05-07T11:48:05;23.90;99.90
25554;DHT22;13446;50.926;5.332;2023-05-07T11:50:31;23.80;99.90
25554;DHT22;13446;50.926;5.332;2023-05-07T11:52:57;23.80;99.90
25554;DHT22;13446;50.926;5.332;2023-05-07T11:55:23;23.70;99.90
25554;DHT22;13446;50.926;5.332;2023-05-07T11:57:50;23.80;99.90
25554;DHT22;13446;50.926;5.332;2023-05-07T12:00:15;23.70;99.90
25554;DHT22;13446;50.926;5.332;2023-05-07T12:02:41;23.40;99.90
25554;DHT22;13446;50.926;5.332;2023-05-07T12:05:07;23.50;99.90
25554;DHT22;13446;50.926;5.332;2023-05-07T12:07:34;23.50;99.90
25554;DHT22;13446;50.926;5.332;2023-05-07T12:10:04;23.40;99.90
25554;DHT22;13446;50.926;5.332;2023-05-07T12:12:29;23.20;99.90
25554;DHT22;13446;50.926;5.332;2023-05-07T12:14:55;23.40;99.90
25554;DHT22;13446;50.926;5.332;2023-05-07T12:17:20;23.40;99.90
25554;DHT22;13446;50.926;5.332;2023-05-07T12:19:46;23.50;99.90
25554;DHT22;13446;50.926;5.332;2023-05-07T12:22:12;23.80;99.90
25554;DHT22;13446;50.926;5.332;2023-05-07T12:24:47;23.60;99.90
25554;DHT22;13446;50.926;5.332;2023-05-07T12:27:13;23.60;99.90
25554;DHT22;13446;50.926;5.332;2023-05-07T12:29:39;23.60;99.90
25554;DHT22;13446;50.926;5.332;2023-05-07T12:32:06;23.70;99.90
25554;DHT22;13446;50.926;5.332;2023-05-07T12:34:32;23.90;99.90
25554;DHT22;13446;50.926;5.332;2023-05-07T12:36:57;24.00;99.90
25554;DHT22;13446;50.926;5.332;2023-05-07T12:39:26;23.90;99.90
25554;DHT22;13446;50.926;5.332;2023-05-07T12:41:55;23.80;99.90
25554;DHT22;13446;50.926;5.332;2023-05-07T12:44:31;24.00;99.90
25554;DHT22;13446;50.926;5.332;2023-05-07T12:46:57;23.80;99.90
25554;DHT22;13446;50.926;5.332;2023-05-07T12:49:23;23.90;99.90
25554;DHT22;13446;50.926;5.332;2023-05-07T12:51:48;24.10;99.90
25554;DHT22;13446;50.926;5.332;2023-05-07T12:54:27;24.20;99.90
25554;DHT22;13446;50.926;5.332;2023-05-07T12:56:59;24.10;99.90
25554;DHT22;13446;50.926;5.332;2023-05-07T12:59:32;23.80;99.90
25554;DHT22;13446;50.926;5.332;2023-05-07T13:01:58;23.70;99.90
25554;DHT22;13446;50.926;5.332;2023-05-07T13:04:26;23.60;99.90
25554;DHT22;13446;50.926;5.332;2023-05-07T13:06:52;23.30;99.90
25554;DHT22;13446;50.926;5.332;2023-05-07T13:09:17;23.20;99.90
25554;DHT22;13446;50.926;5.332;2023-05-07T13:11:43;23.10;99.90
25554;DHT22;13446;50.926;5.332;2023-05-07T13:14:09;23.40;99.90
25554;DHT22;13446;50.926;5.332;2023-05-07T13:16:34;23.30;99.90
25554;DHT22;13446;50.926;5.332;2023-05-07T13:19:00;23.30;99.90
25554;DHT22;13446;50.926;5.332;2023-05-07T13:21:26;23.50;99.90
25554;DHT22;13446;50.926;5.332;2023-05-07T13:23:52;23.70;99.90
25554;DHT22;13446;50.926;5.332;2023-05-07T13:26:18;23.50;99.90
25554;DHT22;13446;50.926;5.332;2023-05-07T13:28:43;23.10;99.90
25554;DHT22;13446;50.926;5.332;2023-05-07T13:31:09;22.90;99.90
25554;DHT22;13446;50.926;5.332;2023-05-07T13:33:34;23.00;99.90
25554;DHT22;13446;50.926;5.332;2023-05-07T13:36:01;23.10;99.90
25554;DHT22;13446;50.926;5.332;2023-05-07T13:38:29;22.90;99.90
25554;DHT22;13446;50.926;5.332;2023-05-07T13:40:54;23.00;99.90
25554;DHT22;13446;50.926;5.332;2023-05-07T13:43:20;23.20;99.90
25554;DHT22;13446;50.926;5.332;2023-05-07T13:45:45;23.40;99.90
25554;DHT22;13446;50.926;5.332;2023-05-07T13:48:11;23.80;99.90
25554;DHT22;13446;50.926;5.332;2023-05-07T13:50:36;23.90;99.90
25554;DHT22;13446;50.926;5.332;2023-05-07T13:53:02;24.00;99.90
25554;DHT22;13446;50.926;5.332;2023-05-07T13:55:28;24.10;99.90
25554;DHT22;13446;50.926;5.332;2023-05-07T13:57:58;24.00;99.90
25554;DHT22;13446;50.926;5.332;2023-05-07T14:00:24;23.60;99.90
25554;DHT22;13446;50.926;5.332;2023-05-07T14:02:50;23.20;99.90
25554;DHT22;13446;50.926;5.332;2023-05-07T14:05:16;22.90;99.90
25554;DHT22;13446;50.926;5.332;2023-05-07T14:07:41;23.40;99.90
25554;DHT22;13446;50.926;5.332;2023-05-07T14:10:07;23.60;99.90
25554;DHT22;13446;50.926;5.332;2023-05-07T14:12:33;23.70;99.90
25554;DHT22;13446;50.926;5.332;2023-05-07T14:14:58;23.60;99.90
25554;DHT22;13446;50.926;5.332;2023-05-07T14:17:24;23.60;99.90
25554;DHT22;13446;50.926;5.332;2023-05-07T14:19:52;23.80;99.90
25554;DHT22;13446;50.926;5.332;2023-05-07T14:22:22;23.90;99.90
25554;DHT22;13446;50.926;5.332;2023-05-07T14:24:48;23.50;99.90
25554;DHT22;13446;50.926;5.332;2023-05-07T14:27:14;23.50;99.90
25554;DHT22;13446;50.926;5.332;2023-05-07T14:29:40;23.30;99.90
25554;DHT22;13446;50.926;5.332;2023-05-07T14:32:05;23.30;99.90
25554;DHT22;13446;50.926;5.332;2023-05-07T14:34:31;23.80;99.90
25554;DHT22;13446;50.926;5.332;2023-05-07T14:36:57;24.00;99.90
25554;DHT22;13446;50.926;5.332;2023-05-07T14:39:23;23.90;99.90
25554;DHT22;13446;50.926;5.332;2023-05-07T14:41:48;23.70;99.90
25554;DHT22;13446;50.926;5.332;2023-05-07T14:44:14;23.50;99.90
25554;DHT22;13446;50.926;5.332;2023-05-07T14:46:40;23.80;99.90
25554;DHT22;13446;50.926;5.332;2023-05-07T14:49:05;24.00;99.90
25554;DHT22;13446;50.926;5.332;2023-05-07T14:51:31;24.00;99.90
25554;DHT22;13446;50.926;5.332;2023-05-07T14:53:58;23.80;99.90
25554;DHT22;13446;50.926;5.332;2023-05-07T14:56:24;23.40;99.90
25554;DHT22;13446;50.926;5.332;2023-05-07T14:58:49;23.40;99.90
25554;DHT22;13446;50.926;5.332;2023-05-07T15:01:15;23.20;99.90
25554;DHT22;13446;50.926;5.332;2023-05-07T15:03:40;23.50;99.90
25554;DHT22;13446;50.926;5.332;2023-05-07T15:06:06;23.30;99.90
25554;DHT22;13446;50.926;5.332;2023-05-07T15:08:31;23.30;99.90
25554;DHT22;13446;50.926;5.332;2023-05-07T15:10:57;23.70;99.90
25554;DHT22;13446;50.926;5.332;2023-05-07T15:13:23;23.70;99.90
25554;DHT22;13446;50.926;5.332;2023-05-07T15:15:48;23.70;99.90
25554;DHT22;13446;50.926;5.332;2023-05-07T15:18:15;23.60;99.90
25554;DHT22;13446;50.926;5.332;2023-05-07T15:20:41;23.70;99.90
25554;DHT22;13446;50.926;5.332;2023-05-07T15:23:07;23.70;99.90
25554;DHT22;13446;50.926;5.332;2023-05-07T15:25:35;23.90;99.90
25554;DHT22;13446;50.926;5.332;2023-05-07T15:28:01;24.10;99.90
25554;DHT22;13446;50.926;5.332;2023-05-07T15:30:26;24.00;99.90
25554;DHT22;13446;50.926;5.332;2023-05-07T15:32:53;24.20;99.90
25554;DHT22;13446;50.926;5.332;2023-05-07T15:35:18;23.70;99.90
25554;DHT22;13446;50.926;5.332;2023-05-07T15:37:50;23.70;99.90
25554;DHT22;13446;50.926;5.332;2023-05-07T15:40:15;23.80;99.90